Terminal Aerodrome Forecast
Issued by NWS Glasgow, MT

Home | Current Version | Previous Version | Text Only | Print | Product List | Glossary On
Versions: 1 2 3 4 5 6 7 8 9 10 11 12 13 14 15 16 17 18 19
000
FTUS45 KGGW 282000 AAB
TAFGGW
TAF AMD
KGGW 282059Z 2821/2918 26026G36KT P6SM VCSH FEW060 BKN080
     FM290000 29023G33KT P6SM BKN050
     FM290300 29011KT P6SM BKN100
     FM290600 28008KT P6SM SCT200=

USA.gov is the U.S. government's official web portal to all federal, state and local government web resources and services.